sensor_id;sensor_type;location;lat;lon;timestamp;pressure;altitude;pressure_sealevel;temperature;humidity
71795;BME280;59641;45.188;5.712;2023-01-28T00:01:38;99408.81;;;5.19;54.74
71795;BME280;59641;45.188;5.712;2023-01-28T00:04:03;99406.16;;;5.19;54.88
71795;BME280;59641;45.188;5.712;2023-01-28T00:06:29;99406.16;;;5.19;54.61
71795;BME280;59641;45.188;5.712;2023-01-28T00:08:54;99405.34;;;5.19;54.81
71795;BME280;59641;45.188;5.712;2023-01-28T00:11:20;99403.69;;;5.18;54.73
71795;BME280;59641;45.188;5.712;2023-01-28T00:13:50;99405.06;;;5.13;54.88
71795;BME280;59641;45.188;5.712;2023-01-28T00:16:16;99406.69;;;5.15;54.72
71795;BME280;59641;45.188;5.712;2023-01-28T00:18:42;99406.25;;;5.11;54.68
71795;BME280;59641;45.188;5.712;2023-01-28T00:21:10;99404.63;;;5.10;54.64
71795;BME280;59641;45.188;5.712;2023-01-28T00:23:38;99398.44;;;5.09;54.61
71795;BME280;59641;45.188;5.712;2023-01-28T00:26:07;99401.47;;;5.06;54.80
71795;BME280;59641;45.188;5.712;2023-01-28T00:28:32;99398.00;;;5.06;54.48
71795;BME280;59641;45.188;5.712;2023-01-28T00:31:05;99392.88;;;5.04;54.79
71795;BME280;59641;45.188;5.712;2023-01-28T00:33:30;99391.41;;;5.02;54.69
71795;BME280;59641;45.188;5.712;2023-01-28T00:35:57;99386.72;;;5.04;54.79
71795;BME280;59641;45.188;5.712;2023-01-28T00:38:23;99400.47;;;5.07;54.98
71795;BME280;59641;45.188;5.712;2023-01-28T00:40:48;99393.78;;;5.11;54.93
71795;BME280;59641;45.188;5.712;2023-01-28T00:43:13;99396.06;;;5.15;54.97
71795;BME280;59641;45.188;5.712;2023-01-28T00:45:39;99386.44;;;5.13;54.66
71795;BME280;59641;45.188;5.712;2023-01-28T00:48:05;99386.44;;;5.13;54.66
71795;BME280;59641;45.188;5.712;2023-01-28T00:50:30;99393.22;;;5.16;54.81
71795;BME280;59641;45.188;5.712;2023-01-28T00:52:56;99399.19;;;5.18;54.85
71795;BME280;59641;45.188;5.712;2023-01-28T00:55:21;99394.53;;;5.20;54.67
71795;BME280;59641;45.188;5.712;2023-01-28T00:57:47;99388.38;;;5.20;54.64
71795;BME280;59641;45.188;5.712;2023-01-28T01:00:13;99394.69;;;5.19;54.55
71795;BME280;59641;45.188;5.712;2023-01-28T01:02:39;99396.53;;;5.18;54.49
71795;BME280;59641;45.188;5.712;2023-01-28T01:05:04;99391.88;;;5.20;54.52
71795;BME280;59641;45.188;5.712;2023-01-28T01:07:30;99389.19;;;5.20;54.58
71795;BME280;59641;45.188;5.712;2023-01-28T01:10:26;99394.69;;;5.19;54.47
71795;BME280;59641;45.188;5.712;2023-01-28T01:12:51;99393.50;;;5.21;54.57
71795;BME280;59641;45.188;5.712;2023-01-28T01:15:17;99400.66;;;5.21;54.28
71795;BME280;59641;45.188;5.712;2023-01-28T01:17:46;99401.69;;;5.20;54.41
71795;BME280;59641;45.188;5.712;2023-01-28T01:20:18;99406.16;;;5.19;54.34
71795;BME280;59641;45.188;5.712;2023-01-28T01:22:45;99403.88;;;5.16;54.44
71795;BME280;59641;45.188;5.712;2023-01-28T01:25:13;99404.88;;;5.15;54.11
71795;BME280;59641;45.188;5.712;2023-01-28T01:27:38;99402.41;;;5.13;54.22
71795;BME280;59641;45.188;5.712;2023-01-28T01:30:04;99404.25;;;5.13;54.20
71795;BME280;59641;45.188;5.712;2023-01-28T01:32:31;99398.28;;;5.11;54.25
71795;BME280;59641;45.188;5.712;2023-01-28T01:34:59;99405.44;;;5.10;54.46
71795;BME280;59641;45.188;5.712;2023-01-28T01:37:24;99404.41;;;5.11;54.34
71795;BME280;59641;45.188;5.712;2023-01-28T01:39:50;99395.63;;;5.11;54.36
71795;BME280;59641;45.188;5.712;2023-01-28T01:42:15;99399.09;;;5.11;54.44
71795;BME280;59641;45.188;5.712;2023-01-28T01:45:32;99397.91;;;5.14;54.38
71795;BME280;59641;45.188;5.712;2023-01-28T01:47:58;99398.72;;;5.15;54.33
71795;BME280;59641;45.188;5.712;2023-01-28T01:50:34;99405.88;;;5.14;54.35
71795;BME280;59641;45.188;5.712;2023-01-28T01:53:15;99397.09;;;5.13;54.14
71795;BME280;59641;45.188;5.712;2023-01-28T01:55:43;99397.09;;;5.13;54.49
71795;BME280;59641;45.188;5.712;2023-01-28T01:58:15;99404.69;;;5.17;54.44
71795;BME280;59641;45.188;5.712;2023-01-28T02:00:41;99394.53;;;5.20;54.42
71795;BME280;59641;45.188;5.712;2023-01-28T02:03:08;99404.34;;;5.20;54.38
71795;BME280;59641;45.188;5.712;2023-01-28T02:05:34;99396.38;;;5.20;54.49
71795;BME280;59641;45.188;5.712;2023-01-28T02:08:00;99395.16;;;5.22;54.56
71795;BME280;59641;45.188;5.712;2023-01-28T02:10:46;99397.81;;;5.22;54.23
71795;BME280;59641;45.188;5.712;2023-01-28T02:13:13;99394.31;;;5.22;54.33
71795;BME280;59641;45.188;5.712;2023-01-28T02:15:41;99398.81;;;5.21;54.50
71795;BME280;59641;45.188;5.712;2023-01-28T02:18:06;99393.69;;;5.20;54.28
71795;BME280;59641;45.188;5.712;2023-01-28T02:20:50;99385.91;;;5.18;54.72
71795;BME280;59641;45.188;5.712;2023-01-28T02:23:40;99396.38;;;5.20;54.37
71795;BME280;59641;45.188;5.712;2023-01-28T02:26:25;99396.16;;;5.21;54.37
71795;BME280;59641;45.188;5.712;2023-01-28T02:29:05;99396.38;;;5.20;54.45
71795;BME280;59641;45.188;5.712;2023-01-28T02:31:43;99396.38;;;5.20;54.27
71795;BME280;59641;45.188;5.712;2023-01-28T02:36:57;99398.56;;;5.16;54.44
71795;BME280;59641;45.188;5.712;2023-01-28T02:39:33;99404.03;;;5.15;54.22
71795;BME280;59641;45.188;5.712;2023-01-28T02:42:18;99409.56;;;5.13;54.48
71795;BME280;59641;45.188;5.712;2023-01-28T02:44:46;99408.75;;;5.12;54.28
71795;BME280;59641;45.188;5.712;2023-01-28T02:47:13;99396.81;;;5.08;54.55
71795;BME280;59641;45.188;5.712;2023-01-28T02:50:00;99397.00;;;5.07;54.50
71795;BME280;59641;45.188;5.712;2023-01-28T02:52:45;99399.84;;;5.05;54.63
71795;BME280;59641;45.188;5.712;2023-01-28T02:55:40;99404.97;;;5.07;54.58
71795;BME280;59641;45.188;5.712;2023-01-28T03:00:48;99399.84;;;5.05;54.42
71795;BME280;59641;45.188;5.712;2023-01-28T03:03:45;99403.31;;;5.06;54.27
71795;BME280;59641;45.188;5.712;2023-01-28T03:06:18;99413.97;;;5.06;54.27
71795;BME280;59641;45.188;5.712;2023-01-28T03:08:51;99404.53;;;5.03;54.35
71795;BME280;59641;45.188;5.712;2023-01-28T03:11:41;99405.50;;;5.02;54.52
71795;BME280;59641;45.188;5.712;2023-01-28T03:14:26;99402.19;;;5.00;54.56
71795;BME280;59641;45.188;5.712;2023-01-28T03:17:17;99401.84;;;5.03;54.45
71795;BME280;59641;45.188;5.712;2023-01-28T03:20:03;99398.38;;;5.03;54.32
71795;BME280;59641;45.188;5.712;2023-01-28T03:22:50;99396.88;;;5.00;54.25
71795;BME280;59641;45.188;5.712;2023-01-28T03:25:39;99394.44;;;4.99;54.41
71795;BME280;59641;45.188;5.712;2023-01-28T03:28:28;99398.72;;;5.00;54.44
71795;BME280;59641;45.188;5.712;2023-01-28T03:31:16;99397.91;;;4.99;54.28
71795;BME280;59641;45.188;5.712;2023-01-28T03:34:03;99404.59;;;4.95;54.45
71795;BME280;59641;45.188;5.712;2023-01-28T03:36:48;99401.09;;;4.95;54.36
71795;BME280;59641;45.188;5.712;2023-01-28T03:39:16;99402.78;;;4.96;54.49
71795;BME280;59641;45.188;5.712;2023-01-28T03:41:42;99404.59;;;4.95;54.60
71795;BME280;59641;45.188;5.712;2023-01-28T03:44:08;99409.91;;;4.95;54.27
71795;BME280;59641;45.188;5.712;2023-01-28T03:46:52;99406.81;;;4.91;54.37
71795;BME280;59641;45.188;5.712;2023-01-28T03:49:17;99409.28;;;4.93;54.47
71795;BME280;59641;45.188;5.712;2023-01-28T03:51:43;99411.94;;;4.93;54.43
71795;BME280;59641;45.188;5.712;2023-01-28T03:54:11;99405.59;;;4.94;54.48
71795;BME280;59641;45.188;5.712;2023-01-28T03:56:36;99406.25;;;4.96;54.63
71795;BME280;59641;45.188;5.712;2023-01-28T03:59:04;99403.13;;;4.93;54.48
71795;BME280;59641;45.188;5.712;2023-01-28T04:01:30;99404.97;;;4.92;54.71
71795;BME280;59641;45.188;5.712;2023-01-28T04:03:55;99405.59;;;4.94;54.43
71795;BME280;59641;45.188;5.712;2023-01-28T04:06:20;99407.44;;;4.94;54.69
71795;BME280;59641;45.188;5.712;2023-01-28T04:08:46;99409.09;;;4.95;54.68
71795;BME280;59641;45.188;5.712;2023-01-28T04:11:19;99401.75;;;4.97;54.63
71795;BME280;59641;45.188;5.712;2023-01-28T04:13:47;99413.59;;;4.94;54.65
71795;BME280;59641;45.188;5.712;2023-01-28T04:16:15;99413.59;;;4.94;54.78
71795;BME280;59641;45.188;5.712;2023-01-28T04:18:41;99410.94;;;4.94;54.62
71795;BME280;59641;45.188;5.712;2023-01-28T04:21:06;99418.09;;;4.94;54.49
71795;BME280;59641;45.188;5.712;2023-01-28T04:23:32;99416.25;;;4.94;54.68
71795;BME280;59641;45.188;5.712;2023-01-28T04:25:57;99415.44;;;4.94;54.46
71795;BME280;59641;45.188;5.712;2023-01-28T04:28:23;99418.75;;;4.96;54.50
71795;BME280;59641;45.188;5.712;2023-01-28T04:30:48;99416.91;;;4.96;54.49
71795;BME280;59641;45.188;5.712;2023-01-28T04:33:13;99420.53;;;4.95;54.33
71795;BME280;59641;45.188;5.712;2023-01-28T04:35:39;99421.41;;;4.96;54.56
71795;BME280;59641;45.188;5.712;2023-01-28T04:38:05;99419.34;;;4.98;54.57
71795;BME280;59641;45.188;5.712;2023-01-28T04:40:30;99417.34;;;5.00;54.42
71795;BME280;59641;45.188;5.712;2023-01-28T04:42:56;99413.88;;;4.99;54.55
71795;BME280;59641;45.188;5.712;2023-01-28T04:45:22;99425.31;;;5.00;54.35
71795;BME280;59641;45.188;5.712;2023-01-28T04:47:48;99418.16;;;5.00;54.43
71795;BME280;59641;45.188;5.712;2023-01-28T04:50:13;99420.66;;;5.02;54.49
71795;BME280;59641;45.188;5.712;2023-01-28T04:52:39;99418.81;;;5.02;54.45
71795;BME280;59641;45.188;5.712;2023-01-28T04:55:05;99419.47;;;5.04;54.61
71795;BME280;59641;45.188;5.712;2023-01-28T04:57:30;99421.94;;;5.06;54.38
71795;BME280;59641;45.188;5.712;2023-01-28T04:59:56;99421.47;;;5.02;54.35
71795;BME280;59641;45.188;5.712;2023-01-28T05:02:21;99408.53;;;4.99;54.12
71795;BME280;59641;45.188;5.712;2023-01-28T05:04:47;99413.97;;;4.91;54.25
71795;BME280;59641;45.188;5.712;2023-01-28T05:07:12;99420.47;;;4.88;54.20
71795;BME280;59641;45.188;5.712;2023-01-28T05:09:37;99414.66;;;4.85;54.38
71795;BME280;59641;45.188;5.712;2023-01-28T05:12:03;99414.84;;;4.83;54.20
71795;BME280;59641;45.188;5.712;2023-01-28T05:14:28;99420.16;;;4.83;54.43
71795;BME280;59641;45.188;5.712;2023-01-28T05:16:54;99413.22;;;4.82;54.36
71795;BME280;59641;45.188;5.712;2023-01-28T05:19:19;99423.47;;;4.85;54.40
71795;BME280;59641;45.188;5.712;2023-01-28T05:21:45;99422.28;;;4.88;54.46
71795;BME280;59641;45.188;5.712;2023-01-28T05:24:10;99427.25;;;4.91;54.40
71795;BME280;59641;45.188;5.712;2023-01-28T05:26:36;99426.41;;;4.90;54.39
71795;BME280;59641;45.188;5.712;2023-01-28T05:29:02;99418.44;;;4.90;54.61
71795;BME280;59641;45.188;5.712;2023-01-28T05:31:28;99422.59;;;4.93;54.43
71795;BME280;59641;45.188;5.712;2023-01-28T05:33:53;99434.88;;;4.94;54.58
71795;BME280;59641;45.188;5.712;2023-01-28T05:36:18;99432.19;;;4.94;54.61
71795;BME280;59641;45.188;5.712;2023-01-28T05:38:44;99438.34;;;4.95;54.40
71795;BME280;59641;45.188;5.712;2023-01-28T05:41:09;99440.00;;;4.96;54.59
71795;BME280;59641;45.188;5.712;2023-01-28T05:43:35;99434.38;;;4.90;54.28
71795;BME280;59641;45.188;5.712;2023-01-28T05:46:00;99434.97;;;4.86;54.39
71795;BME280;59641;45.188;5.712;2023-01-28T05:48:26;99445.59;;;4.86;54.45
71795;BME280;59641;45.188;5.712;2023-01-28T05:50:51;99450.91;;;4.86;54.58
71795;BME280;59641;45.188;5.712;2023-01-28T05:53:16;99442.94;;;4.86;54.58
71795;BME280;59641;45.188;5.712;2023-01-28T05:55:42;99438.59;;;4.85;54.43
71795;BME280;59641;45.188;5.712;2023-01-28T05:58:07;99443.28;;;4.83;54.52
71795;BME280;59641;45.188;5.712;2023-01-28T06:00:32;99447.31;;;4.79;54.77
71795;BME280;59641;45.188;5.712;2023-01-28T06:02:58;99442.00;;;4.79;54.66
71795;BME280;59641;45.188;5.712;2023-01-28T06:05:23;99438.03;;;4.75;54.82
71795;BME280;59641;45.188;5.712;2023-01-28T06:07:49;99444.19;;;4.75;54.84
71795;BME280;59641;45.188;5.712;2023-01-28T06:10:15;99442.88;;;4.71;54.73
71795;BME280;59641;45.188;5.712;2023-01-28T06:12:42;99455.88;;;4.66;54.87
71795;BME280;59641;45.188;5.712;2023-01-28T06:15:08;99449.91;;;4.64;55.05
71795;BME280;59641;45.188;5.712;2023-01-28T06:17:33;99447.56;;;4.69;55.00
71795;BME280;59641;45.188;5.712;2023-01-28T06:19:59;99456.25;;;4.63;55.06
71795;BME280;59641;45.188;5.712;2023-01-28T06:22:24;99460.38;;;4.65;55.19
71795;BME280;59641;45.188;5.712;2023-01-28T06:24:50;99465.53;;;4.67;55.22
71795;BME280;59641;45.188;5.712;2023-01-28T06:27:15;99465.69;;;4.65;55.32
71795;BME280;59641;45.188;5.712;2023-01-28T06:29:40;99468.34;;;4.65;55.28
71795;BME280;59641;45.188;5.712;2023-01-28T06:32:06;99467.53;;;4.65;55.39
71795;BME280;59641;45.188;5.712;2023-01-28T06:34:31;99470.84;;;4.67;55.55
71795;BME280;59641;45.188;5.712;2023-01-28T06:36:57;99468.84;;;4.69;55.51
71795;BME280;59641;45.188;5.712;2023-01-28T06:39:22;99474.78;;;4.71;55.54
71795;BME280;59641;45.188;5.712;2023-01-28T06:41:48;99475.97;;;4.68;55.31
71795;BME280;59641;45.188;5.712;2023-01-28T06:44:15;99479.63;;;4.67;55.27
71795;BME280;59641;45.188;5.712;2023-01-28T06:46:40;99477.16;;;4.66;55.57
71795;BME280;59641;45.188;5.712;2023-01-28T06:49:06;99476.16;;;4.67;55.72
71795;BME280;59641;45.188;5.712;2023-01-28T06:51:31;99483.75;;;4.70;55.63
71795;BME280;59641;45.188;5.712;2023-01-28T06:53:56;99478.81;;;4.67;55.48
71795;BME280;59641;45.188;5.712;2023-01-28T06:56:22;99484.94;;;4.67;55.69
71795;BME280;59641;45.188;5.712;2023-01-28T06:58:47;99494.56;;;4.68;55.76
71795;BME280;59641;45.188;5.712;2023-01-28T07:01:13;99494.22;;;4.72;55.81
71795;BME280;59641;45.188;5.712;2023-01-28T07:03:38;99494.94;;;4.65;55.53
71795;BME280;59641;45.188;5.712;2023-01-28T07:06:04;99496.13;;;4.63;55.86
71795;BME280;59641;45.188;5.712;2023-01-28T07:08:29;99494.28;;;4.63;55.77
71795;BME280;59641;45.188;5.712;2023-01-28T07:10:54;99489.78;;;4.64;55.94
71795;BME280;59641;45.188;5.712;2023-01-28T07:13:20;99489.16;;;4.62;55.85
71795;BME280;59641;45.188;5.712;2023-01-28T07:15:45;99488.31;;;4.61;56.00
71795;BME280;59641;45.188;5.712;2023-01-28T07:18:11;99494.47;;;4.62;55.64
71795;BME280;59641;45.188;5.712;2023-01-28T07:20:36;99496.13;;;4.63;55.83
71795;BME280;59641;45.188;5.712;2023-01-28T07:23:01;99495.09;;;4.64;56.06
71795;BME280;59641;45.188;5.712;2023-01-28T07:25:27;99497.44;;;4.67;55.95
71795;BME280;59641;45.188;5.712;2023-01-28T07:27:52;99491.75;;;4.70;55.79
71795;BME280;59641;45.188;5.712;2023-01-28T07:30:19;99496.53;;;4.75;55.99
71795;BME280;59641;45.188;5.712;2023-01-28T07:32:45;99490.84;;;4.78;55.85
71795;BME280;59641;45.188;5.712;2023-01-28T07:35:11;99497.34;;;4.75;55.72
71795;BME280;59641;45.188;5.712;2023-01-28T07:37:37;99504.31;;;4.76;55.87
71795;BME280;59641;45.188;5.712;2023-01-28T07:40:03;99512.09;;;4.78;55.97
71795;BME280;59641;45.188;5.712;2023-01-28T07:42:28;99511.75;;;4.81;56.17
71795;BME280;59641;45.188;5.712;2023-01-28T07:44:54;99519.38;;;4.84;56.12
71795;BME280;59641;45.188;5.712;2023-01-28T07:47:19;99532.16;;;4.88;55.93
71795;BME280;59641;45.188;5.712;2023-01-28T07:49:45;99519.84;;;4.87;55.91
71795;BME280;59641;45.188;5.712;2023-01-28T07:52:10;99535.78;;;4.87;56.27
71795;BME280;59641;45.188;5.712;2023-01-28T07:54:36;99529.28;;;4.90;56.20
71795;BME280;59641;45.188;5.712;2023-01-28T07:57:01;99537.91;;;4.92;56.06
71795;BME280;59641;45.188;5.712;2023-01-28T07:59:27;99541.59;;;4.91;56.05
71795;BME280;59641;45.188;5.712;2023-01-28T08:01:52;99540.41;;;4.94;56.03
71795;BME280;59641;45.188;5.712;2023-01-28T08:04:20;99544.91;;;4.93;55.99
71795;BME280;59641;45.188;5.712;2023-01-28T08:06:46;99560.22;;;4.91;55.75
71795;BME280;59641;45.188;5.712;2023-01-28T08:09:11;99553.41;;;4.88;55.92
71795;BME280;59641;45.188;5.712;2023-01-28T08:11:37;99558.38;;;4.91;55.66
71795;BME280;59641;45.188;5.712;2023-01-28T08:14:04;99559.34;;;4.90;55.93
71795;BME280;59641;45.188;5.712;2023-01-28T08:16:29;99564.50;;;4.92;56.18
71795;BME280;59641;45.188;5.712;2023-01-28T08:18:55;99570.47;;;4.94;56.07
71795;BME280;59641;45.188;5.712;2023-01-28T08:21:20;99579.94;;;4.97;56.27
71795;BME280;59641;45.188;5.712;2023-01-28T08:23:46;99579.75;;;4.98;56.15
71795;BME280;59641;45.188;5.712;2023-01-28T08:26:11;99582.44;;;4.98;56.03
71795;BME280;59641;45.188;5.712;2023-01-28T08:28:37;99583.91;;;5.01;56.17
71795;BME280;59641;45.188;5.712;2023-01-28T08:31:02;99589.03;;;5.02;56.16
71795;BME280;59641;45.188;5.712;2023-01-28T08:33:28;99579.22;;;5.03;56.26
71795;BME280;59641;45.188;5.712;2023-01-28T08:35:53;99586.03;;;5.05;56.19
71795;BME280;59641;45.188;5.712;2023-01-28T08:38:19;99594.81;;;5.06;56.19
71795;BME280;59641;45.188;5.712;2023-01-28T08:40:46;99594.81;;;5.06;56.01
71795;BME280;59641;45.188;5.712;2023-01-28T08:43:11;99600.97;;;5.06;56.36
71795;BME280;59641;45.188;5.712;2023-01-28T08:45:38;99598.13;;;5.08;56.52
71795;BME280;59641;45.188;5.712;2023-01-28T08:48:05;99601.44;;;5.10;56.55
71795;BME280;59641;45.188;5.712;2023-01-28T08:50:36;99604.72;;;5.12;56.57
71795;BME280;59641;45.188;5.712;2023-01-28T08:53:05;99612.19;;;5.17;56.53
71795;BME280;59641;45.188;5.712;2023-01-28T08:55:32;99617.34;;;5.18;56.32
71795;BME280;59641;45.188;5.712;2023-01-28T08:58:03;99623.47;;;5.19;56.34
71795;BME280;59641;45.188;5.712;2023-01-28T09:00:29;99625.31;;;5.18;56.69
71795;BME280;59641;45.188;5.712;2023-01-28T09:02:54;99628.63;;;5.20;56.62
71795;BME280;59641;45.188;5.712;2023-01-28T09:05:20;99629.63;;;5.19;56.58
71795;BME280;59641;45.188;5.712;2023-01-28T09:07:46;99634.13;;;5.19;56.54
71795;BME280;59641;45.188;5.712;2023-01-28T09:10:11;99634.94;;;5.19;56.63
71795;BME280;59641;45.188;5.712;2023-01-28T09:12:37;99638.63;;;5.18;56.57
71795;BME280;59641;45.188;5.712;2023-01-28T09:15:03;99641.13;;;5.20;56.47
71795;BME280;59641;45.188;5.712;2023-01-28T09:17:29;99636.78;;;5.19;56.69
71795;BME280;59641;45.188;5.712;2023-01-28T09:19:54;99633.13;;;5.20;56.54
71795;BME280;59641;45.188;5.712;2023-01-28T09:22:19;99641.13;;;5.20;56.37
71795;BME280;59641;45.188;5.712;2023-01-28T09:24:45;99642.91;;;5.19;56.40
71795;BME280;59641;45.188;5.712;2023-01-28T09:27:10;99661.38;;;5.21;56.44
71795;BME280;59641;45.188;5.712;2023-01-28T09:29:36;99649.25;;;5.18;56.39
71795;BME280;59641;45.188;5.712;2023-01-28T09:32:03;99651.44;;;5.15;56.44
71795;BME280;59641;45.188;5.712;2023-01-28T09:34:28;99663.91;;;5.14;56.45
71795;BME280;59641;45.188;5.712;2023-01-28T09:36:54;99659.59;;;5.13;56.38
71795;BME280;59641;45.188;5.712;2023-01-28T09:39:19;99663.44;;;5.10;56.42
71795;BME280;59641;45.188;5.712;2023-01-28T09:42:03;99671.44;;;5.10;56.50
71795;BME280;59641;45.188;5.712;2023-01-28T09:45:15;99675.94;;;5.10;56.59
71795;BME280;59641;45.188;5.712;2023-01-28T09:47:55;99679.41;;;5.10;56.60
71795;BME280;59641;45.188;5.712;2023-01-28T09:50:36;99689.69;;;5.13;56.62
71795;BME280;59641;45.188;5.712;2023-01-28T09:53:25;99691.34;;;5.15;56.51
71795;BME280;59641;45.188;5.712;2023-01-28T09:55:56;99690.50;;;5.14;56.69
71795;BME280;59641;45.188;5.712;2023-01-28T09:58:21;99699.97;;;5.17;56.58
71795;BME280;59641;45.188;5.712;2023-01-28T10:00:54;99695.50;;;5.17;56.52
71795;BME280;59641;45.188;5.712;2023-01-28T10:20:00;99701.78;;;5.24;56.66
71795;BME280;59641;45.188;5.712;2023-01-28T10:22:33;99712.22;;;5.26;56.43
71795;BME280;59641;45.188;5.712;2023-01-28T10:25:04;99709.41;;;5.27;56.41
71795;BME280;59641;45.188;5.712;2023-01-28T10:27:32;99703.06;;;5.28;56.50
71795;BME280;59641;45.188;5.712;2023-01-28T10:29:59;99702.88;;;5.30;56.45
71795;BME280;59641;45.188;5.712;2023-01-28T10:32:40;99705.19;;;5.33;56.45
71795;BME280;59641;45.188;5.712;2023-01-28T10:35:08;99711.16;;;5.35;56.42
71795;BME280;59641;45.188;5.712;2023-01-28T10:37:36;99718.78;;;5.38;56.30
71795;BME280;59641;45.188;5.712;2023-01-28T10:40:03;99717.78;;;5.39;56.40
71795;BME280;59641;45.188;5.712;2023-01-28T10:42:37;99705.47;;;5.38;56.27
71795;BME280;59641;45.188;5.712;2023-01-28T10:47:43;99712.28;;;5.41;56.17
71795;BME280;59641;45.188;5.712;2023-01-28T10:50:16;99710.28;;;5.43;56.12
71795;BME280;59641;45.188;5.712;2023-01-28T10:52:57;99703.97;;;5.44;56.23
71795;BME280;59641;45.188;5.712;2023-01-28T10:55:28;99703.97;;;5.44;55.91
71795;BME280;59641;45.188;5.712;2023-01-28T10:57:54;99709.91;;;5.46;55.87
71795;BME280;59641;45.188;5.712;2023-01-28T11:00:33;99701.91;;;5.46;55.86
71795;BME280;59641;45.188;5.712;2023-01-28T11:02:59;99700.13;;;5.46;55.75
71795;BME280;59641;45.188;5.712;2023-01-28T11:05:29;99703.09;;;5.43;55.89
71795;BME280;59641;45.188;5.712;2023-01-28T11:08:22;99699.81;;;5.41;55.85
71795;BME280;59641;45.188;5.712;2023-01-28T11:10:49;99699.34;;;5.38;55.74
71795;BME280;59641;45.188;5.712;2023-01-28T11:13:28;99695.66;;;5.39;56.03
71795;BME280;59641;45.188;5.712;2023-01-28T11:16:04;99705.31;;;5.40;55.79
71795;BME280;59641;45.188;5.712;2023-01-28T11:18:34;99693.84;;;5.39;55.75
71795;BME280;59641;45.188;5.712;2023-01-28T11:21:03;99704.50;;;5.39;55.98
71795;BME280;59641;45.188;5.712;2023-01-28T11:23:36;99698.50;;;5.37;55.58
71795;BME280;59641;45.188;5.712;2023-01-28T11:26:16;99694.38;;;5.34;55.98
71795;BME280;59641;45.188;5.712;2023-01-28T11:28:42;99694.53;;;5.33;55.88
71795;BME280;59641;45.188;5.712;2023-01-28T11:31:12;99694.53;;;5.33;55.76
71795;BME280;59641;45.188;5.712;2023-01-28T11:33:45;99702.34;;;5.34;55.85
71795;BME280;59641;45.188;5.712;2023-01-28T11:36:20;99698.69;;;5.36;55.77
71795;BME280;59641;45.188;5.712;2023-01-28T11:38:54;99692.38;;;5.37;55.82
71795;BME280;59641;45.188;5.712;2023-01-28T11:43:56;99692.81;;;5.40;55.81
71795;BME280;59641;45.188;5.712;2023-01-28T11:46:36;99693.66;;;5.41;55.67
71795;BME280;59641;45.188;5.712;2023-01-28T11:54:53;99685.50;;;5.42;55.46
71795;BME280;59641;45.188;5.712;2023-01-28T12:05:45;99689.47;;;5.46;55.57
71795;BME280;59641;45.188;5.712;2023-01-28T12:08:22;99687.47;;;5.48;55.22
71795;BME280;59641;45.188;5.712;2023-01-28T12:13:40;99693.41;;;5.50;55.25
71795;BME280;59641;45.188;5.712;2023-01-28T12:37:42;99689.91;;;5.50;54.94
71795;BME280;59641;45.188;5.712;2023-01-28T12:40:31;99684.78;;;5.48;55.01
71795;BME280;59641;45.188;5.712;2023-01-28T12:43:09;99688.06;;;5.50;54.92
71795;BME280;59641;45.188;5.712;2023-01-28T12:45:37;99684.44;;;5.51;54.97
71795;BME280;59641;45.188;5.712;2023-01-28T12:48:15;99685.25;;;5.52;55.00
71795;BME280;59641;45.188;5.712;2023-01-28T12:50:46;99683.41;;;5.52;54.71
71795;BME280;59641;45.188;5.712;2023-01-28T12:55:57;99685.53;;;5.57;54.80
71795;BME280;59641;45.188;5.712;2023-01-28T12:58:36;99677.91;;;5.54;54.62
71795;BME280;59641;45.188;5.712;2023-01-28T13:01:07;99686.72;;;5.54;54.57
71795;BME280;59641;45.188;5.712;2023-01-28T13:03:48;99683.41;;;5.52;54.58
71795;BME280;59641;45.188;5.712;2023-01-28T13:06:26;99689.38;;;5.54;54.58
71795;BME280;59641;45.188;5.712;2023-01-28T13:08:58;99683.91;;;5.56;54.64
71795;BME280;59641;45.188;5.712;2023-01-28T13:11:32;99683.91;;;5.56;54.61
71795;BME280;59641;45.188;5.712;2023-01-28T13:13:59;99686.56;;;5.56;54.63
71795;BME280;59641;45.188;5.712;2023-01-28T13:16:25;99691.50;;;5.59;54.75
71795;BME280;59641;45.188;5.712;2023-01-28T13:18:50;99687.81;;;5.60;54.54
71795;BME280;59641;45.188;5.712;2023-01-28T13:23:49;99694.16;;;5.59;54.57
71795;BME280;59641;45.188;5.712;2023-01-28T13:28:48;99692.97;;;5.62;54.53
71795;BME280;59641;45.188;5.712;2023-01-28T13:31:20;99697.94;;;5.65;54.59
71795;BME280;59641;45.188;5.712;2023-01-28T13:41:51;99703.38;;;5.71;54.20
71795;BME280;59641;45.188;5.712;2023-01-28T13:44:26;99706.69;;;5.73;54.14
71795;BME280;59641;45.188;5.712;2023-01-28T13:46:55;99703.00;;;5.74;54.29
71795;BME280;59641;45.188;5.712;2023-01-28T13:49:48;99705.69;;;5.74;54.05
71795;BME280;59641;45.188;5.712;2023-01-28T13:52:25;99715.34;;;5.75;54.23
71795;BME280;59641;45.188;5.712;2023-01-28T14:11:47;99731.31;;;5.75;53.93
71795;BME280;59641;45.188;5.712;2023-01-28T14:16:57;99739.31;;;5.75;53.68
71795;BME280;59641;45.188;5.712;2023-01-28T14:19:31;99741.75;;;5.77;53.74
71795;BME280;59641;45.188;5.712;2023-01-28T14:21:57;99741.75;;;5.77;53.74
71795;BME280;59641;45.188;5.712;2023-01-28T14:24:23;99741.97;;;5.75;53.76
71795;BME280;59641;45.188;5.712;2023-01-28T14:27:15;99743.59;;;5.76;53.81
71795;BME280;59641;45.188;5.712;2023-01-28T14:29:50;99750.78;;;5.76;53.64
71795;BME280;59641;45.188;5.712;2023-01-28T14:32:28;99742.97;;;5.74;53.59
71795;BME280;59641;45.188;5.712;2023-01-28T14:34:55;99759.78;;;5.75;53.49
71795;BME280;59641;45.188;5.712;2023-01-28T14:37:27;99752.97;;;5.72;53.79
71795;BME280;59641;45.188;5.712;2023-01-28T14:40:05;99751.97;;;5.73;53.80
71795;BME280;59641;45.188;5.712;2023-01-28T14:42:38;99759.94;;;5.73;53.92
71795;BME280;59641;45.188;5.712;2023-01-28T14:50:07;99760.78;;;5.74;53.78
71795;BME280;59641;45.188;5.712;2023-01-28T14:55:44;99757.47;;;5.72;53.70
71795;BME280;59641;45.188;5.712;2023-01-28T14:58:23;99755.66;;;5.72;53.74
71795;BME280;59641;45.188;5.712;2023-01-28T15:00:58;99758.47;;;5.71;53.85
71795;BME280;59641;45.188;5.712;2023-01-28T15:03:25;99759.13;;;5.73;53.64
71795;BME280;59641;45.188;5.712;2023-01-28T15:06:22;99757.66;;;5.70;53.50
71795;BME280;59641;45.188;5.712;2023-01-28T15:08:49;99759.47;;;5.70;53.84
71795;BME280;59641;45.188;5.712;2023-01-28T15:11:22;99761.31;;;5.69;53.65
71795;BME280;59641;45.188;5.712;2023-01-28T15:13:54;99767.28;;;5.71;53.54